SCIE/CCP METAR and TAF weather

Enter ICAO airport designator
Station Type Date Time Source
SCIE METAR 2022/12/04 04:00 UTC NOAA

SCIE 040400Z 21007KT CAVOK 14/10 Q1017


Station Type Date Time Source
SCIE Decoded METAR 2022/12/04 04:00 UTC NOAA

Concepcion, Chile (SCIE) 36-46S 073-03W
Dec 03, 2022 - 11:00 PM EST / 2022.12.04 0400 UTC
Wind: from the SSW (210 degrees) at 8 MPH (7 KT):0
Visibility: greater than 7 mile(s):0
Temperature: 57 F (14 C)
Dew Point: 50 F (10 C)
Relative Humidity: 76%
Pressure (altimeter): 30.03 in. Hg (1017 hPa)
ob: SCIE 040400Z 21007KT CAVOK 14/10 Q1017
cycle: 4

Station Type Date Time Source
SCIE TAF 2022/12/04 06:24 UTC NOAA

TAF SCIE 040400Z 0406/0506 20006KT CAVOK TX22/0418Z TN11/0410Z
TEMPO 0408/0412 15004KT
BECMG 0416/0418 23014KT
BECMG 0502/0504 20006KT

Example: see airport list